London Express — DPLE — position and weather

sailwx.info

Track history (hours):
 
Tides and Currents Weather Stations Pressure Air Temp Water Temp Dewpoint Dewpoint Depression Visibility Wind Speed Wind Dir Waves Ship Positions

London Express

Last reported at 2014-Jul-30 06:24 UTC. Time now 2014-Jul-30 07:12 UTC.
Position N 53°46' E 006°31'.

Length 294 m; beam 32.3 m; draft 13.6 m.

Type: Ship. MMSI: 211262630.

Date/timePositionNaut miles runAvg speedWind from/ knotsBaromVisibWave heightAir tempDewpointWater temp
2014-Jul-30 06:24N 53°46' E 006°31'1517.8
2014-Jul-30 05:33N 53°43' E 006°06'1817.7
2014-Jul-30 04:33N 53°37' E 005°38'1817.5
2014-Jul-30 03:34N 53°32' E 005°10'1717.2
2014-Jul-30 02:33N 53°24' E 004°44'1717.0
2014-Jul-30 01:34N 53°09' E 004°30'2017.1
2014-Jul-30 00:22N 52°51' E 004°15'1417.2
2014-Jul-29 23:32N 52°40' E 004°01'1717.1
2014-Jul-29 22:33N 52°27' E 003°42'1716.9
2014-Jul-29 21:33N 52°13' E 003°28'1717.2
2014-Jul-29 20:33N 51°56' E 003°22'1616.4
2014-Jul-29 19:33N 51°41' E 003°12'1615.5
2014-Jul-29 18:33N 51°27' E 002°60'1817.6
2014-Jul-29 17:33N 51°25' E 003°28'1212.1
2014-Jul-29 16:34N 51°21' E 003°46'1010.2
2014-Jul-29 15:33N 51°24' E 004°02'9 8.8
2014-Jul-29 14:33N 51°21' E 004°15'1 1.1
2014-Jul-29 13:33N 51°20' E 004°17'0 0.0
2014-Jul-29 12:33N 51°20' E 004°17'0 0.0
2014-Jul-29 11:33N 51°20' E 004°17'0 0.0
2014-Jul-29 10:33N 51°20' E 004°17'0 0.0
2014-Jul-29 09:34N 51°20' E 004°17'0 0.0
2014-Jul-29 08:33N 51°20' E 004°17'0 0.0
2014-Jul-29 07:33N 51°20' E 004°17'0 0.0
2014-Jul-29 06:33N 51°20' E 004°17'0 0.0
2014-Jul-29 05:33N 51°20' E 004°17'0 0.0
2014-Jul-29 04:33N 51°20' E 004°17'0 0.0
2014-Jul-29 03:34N 51°20' E 004°17'0 0.0
2014-Jul-29 02:33N 51°20' E 004°17'0 0.0
2014-Jul-29 01:34N 51°20' E 004°17'0 0.0
2014-Jul-29 00:33N 51°20' E 004°17'0 0.0
2014-Jul-28 23:33N 51°20' E 004°17'0 0.0
2014-Jul-28 22:33N 51°20' E 004°17'0 0.0
2014-Jul-28 21:33N 51°20' E 004°17'0 0.0
2014-Jul-28 20:33N 51°20' E 004°17'0 0.0
2014-Jul-28 19:33N 51°20' E 004°17'0 0.0
2014-Jul-28 18:33N 51°20' E 004°17'0 0.0
2014-Jul-28 17:33N 51°20' E 004°17'0 0.0
2014-Jul-28 16:33N 51°20' E 004°17'0 0.0
2014-Jul-28 15:33N 51°20' E 004°17'0 0.0
2014-Jul-28 14:33N 51°20' E 004°17'0 0.0
2014-Jul-28 13:34N 51°20' E 004°17'0 0.1
2014-Jul-28 12:34N 51°20' E 004°17'4 4.3
2014-Jul-28 11:33N 51°24' E 004°13'9 9.0
2014-Jul-28 10:33N 51°26' E 003°59'9 9.4
2014-Jul-28 09:33N 51°22' E 003°45'8 8.3
2014-Jul-28 08:33N 51°26' E 003°33'1515.4
2014-Jul-28 07:34N 51°24' E 003°09'1615.9
2014-Jul-28 06:34N 51°22' E 002°44'1413.9
2014-Jul-28 05:33N 51°20' E 002°21'1918.7
2014-Jul-28 04:34N 51°10' E 001°56'1919.2
2014-Jul-28 03:34N 50°58' E 001°32'1919.4
2014-Jul-28 02:34N 50°41' E 001°19'2819.0
2014-Jul-28 01:04N 50°26' E 000°41'1019.3
2014-Jul-28 00:34N 50°24' E 000°26'2118.7
2014-Jul-27 23:27N 50°19' W 000°06'3216.6
2014-Jul-27 21:29N 50°33' W 000°52'1213.0
2014-Jul-27 20:33N 50°43' W 001°01'1212.5
2014-Jul-27 19:34N 50°50' W 001°18'7 7.0
2014-Jul-27 18:34N 50°54' W 001°26'1 0.9
2014-Jul-27 17:32N 50°55' W 001°28'0 0.0
2014-Jul-27 16:29N 50°55' W 001°28'0 0.0
2014-Jul-27 15:29N 50°55' W 001°28'0 0.0
2014-Jul-27 14:31N 50°55' W 001°28'0 0.0
2014-Jul-27 13:31N 50°55' W 001°28'0 0.0
2014-Jul-27 12:30N 50°55' W 001°28'0 0.0
2014-Jul-27 11:30N 50°55' W 001°28'0 0.0
2014-Jul-27 10:32N 50°55' W 001°28'0 0.0
2014-Jul-27 09:32N 50°55' W 001°28'0 0.0
2014-Jul-27 08:28N 50°55' W 001°28'0 0.0
2014-Jul-27 07:31N 50°55' W 001°28'0 0.0
2014-Jul-27 06:33N 50°55' W 001°28'0 0.0
2014-Jul-27 05:33N 50°55' W 001°28'0 0.0
2014-Jul-27 04:33N 50°55' W 001°28'0 0.0
2014-Jul-27 03:33N 50°55' W 001°28'0 0.0
2014-Jul-27 02:32N 50°55' W 001°28'0 0.0
2014-Jul-27 01:32N 50°55' W 001°28'0 0.0
2014-Jul-27 00:31N 50°55' W 001°28'0 0.0
2014-Jul-26 23:31N 50°55' W 001°28'0 0.0
2014-Jul-26 22:33N 50°55' W 001°28'0 0.0
2014-Jul-26 21:33N 50°55' W 001°28'0 0.0
2014-Jul-26 20:32N 50°55' W 001°28'0 0.0
2014-Jul-26 19:32N 50°55' W 001°28'0 0.0
2014-Jul-26 18:32N 50°55' W 001°28'0 0.0
2014-Jul-26 17:31N 50°55' W 001°28'0 0.0
2014-Jul-26 16:33N 50°55' W 001°28'0 0.0
2014-Jul-26 15:33N 50°55' W 001°28'3 3.3
2014-Jul-26 14:33N 50°53' W 001°24'8 8.4
2014-Jul-26 13:33N 50°46' W 001°15'1413.7
2014-Jul-26 12:33N 50°39' W 000°57'4 3.4
2014-Jul-26 11:25N 50°36' W 001°01'0 0.3
2014-Jul-26 10:31N 50°36' W 001°01'0 0.1
2014-Jul-26 09:33N 50°36' W 001°01'0 0.0
2014-Jul-26 08:33N 50°36' W 001°01'0 0.0
2014-Jul-26 07:33N 50°36' W 001°01'0 0.0
2014-Jul-26 06:32N 50°36' W 001°01'0 0.0
2014-Jul-26 05:32N 50°36' W 001°01'0 0.3
2014-Jul-26 04:31N 50°36' W 001°01'0 0.1
2014-Jul-26 03:31N 50°36' W 001°01'0 0.0
2014-Jul-26 02:33N 50°36' W 001°01'0 0.0
2014-Jul-26 01:24N 50°36' W 001°01'0 0.0
2014-Jul-26 00:33N 50°36' W 001°01'0 0.0
2014-Jul-25 23:32N 50°36' W 001°01'0 0.1
2014-Jul-25 22:32N 50°36' W 001°01'0 0.3
2014-Jul-25 21:31N 50°36' W 001°01'0 0.0
2014-Jul-25 20:31N 50°36' W 001°01'0 0.0
2014-Jul-25 19:33N 50°36' W 001°01'0 0.0
2014-Jul-25 18:33N 50°36' W 001°01'0 0.0
2014-Jul-25 17:33N 50°36' W 001°01'0 0.3
2014-Jul-25 16:32N 50°36' W 001°01'0 0.1
2014-Jul-25 15:32N 50°36' W 001°01'0 0.0
2014-Jul-25 14:31N 50°36' W 001°01'0 0.0
2014-Jul-25 13:31N 50°36' W 001°01'0 0.0
2014-Jul-25 12:33N 50°36' W 001°01'0 0.0
2014-Jul-25 11:30N 50°36' W 001°01'0 0.0
2014-Jul-25 10:33N 50°36' W 001°01'0 0.2
2014-Jul-25 09:26N 50°36' W 001°01'0 0.1
2014-Jul-25 08:32N 50°36' W 001°01'0 0.0
2014-Jul-25 07:31N 50°36' W 001°01'0 0.0
2014-Jul-25 06:31N 50°36' W 001°01'0 0.0
2014-Jul-25 05:33N 50°36' W 001°01'0 0.2
2014-Jul-25 04:33N 50°36' W 001°01'0 0.2
2014-Jul-25 03:29N 50°36' W 001°01'0 0.0
2014-Jul-25 02:32N 50°36' W 001°01'0 0.0
2014-Jul-25 01:32N 50°36' W 001°01'0 0.0
2014-Jul-25 00:26N 50°36' W 001°01'0 0.0
2014-Jul-24 23:31N 50°36' W 001°01'0 0.0
2014-Jul-24 22:33N 50°36' W 001°01'0 0.3
2014-Jul-24 21:33N 50°36' W 001°01'0 0.1
2014-Jul-24 20:32N 50°36' W 001°01'0 0.0
2014-Jul-24 19:32N 50°36' W 001°01'0 0.0
2014-Jul-24 18:32N 50°36' W 001°01'0 0.0
2014-Jul-24 17:31N 50°36' W 001°01'0 0.0
2014-Jul-24 16:31N 50°36' W 001°01'0 0.3
2014-Jul-24 15:33N 50°36' W 001°01'0 0.1
2014-Jul-24 14:34N 50°36' W 001°01'0 0.0
2014-Jul-24 13:34N 50°36' W 001°01'0 0.0
2014-Jul-24 12:34N 50°36' W 001°01'0 0.0
2014-Jul-24 11:34N 50°36' W 001°01'0 0.0
2014-Jul-24 10:33N 50°36' W 001°01'0 0.1
2014-Jul-24 09:34N 50°36' W 001°01'0 0.3
2014-Jul-24 08:33N 50°36' W 001°01'0 0.0
2014-Jul-24 07:34N 50°36' W 001°01'0 0.0
2014-Jul-24 06:34N 50°36' W 001°01'0 0.2
2014-Jul-24 05:34N 50°36' W 001°01'7 7.4
2014-Jul-24 04:34N 50°29' W 001°02'5116.8
2014-Jul-24 01:31N 49°58' W 002°06'15717.6
2014-Jul-23 16:33N 49°37' W 006°07'1918.7
2014-Jul-23 15:33N 49°38' W 006°36'17918.7
2014-Jul-23 06:00N 49°30' W 011°12'10918.2 150 / 91019.0 5.4 0.517.514.618.0
2014-Jul-23 00:00N 49°24' W 014°00'11419.0 170 / 121019.0 5.4 17.015.418.0
2014-Jul-22 18:00N 49°12' W 016°54'5518.4 250 / 41018.010.8 0.518.513.618.0
2014-Jul-22 15:00N 49°06' W 018°18'5618.8 210 / 121018.210.8 18.214.718.0
2014-Jul-22 12:00N 48°54' W 019°42'11619.4 230 / 151017.310.8 1.019.512.817.0
2014-Jul-22 06:00N 48°36' W 022°36'11419.0 240 / 201014.510.8 3.016.010.817.0
2014-Jul-22 00:00N 48°12' W 025°24'22412.4 220 / 201014.010.8 2.514.811.417.0
2014-Jul-21 06:00N 46°30' W 030°18'23138.5 270 / 201014.010.8 3.514.0 9.816.0
2014-Jul-21 00:00N 45°54' W 035°48'21217.7 270 / 221016.310.8 3.015.011.618.0
2014-Jul-20 12:00N 44°30' W 040°24'   300 / 211019.310.8 2.016.511.419.0
Track history (hours):
 
Tides and Currents Weather Stations Pressure Air Temp Water Temp Dewpoint Dewpoint Depression Visibility Wind Speed Wind Dir Waves Ship Positions

London Express

Last reported at 2014-Jul-30 06:24 UTC. Time now 2014-Jul-30 07:12 UTC.
Position N 53°46' E 006°31'.

Length 294 m; beam 32.3 m; draft 13.6 m.

Type: Ship. MMSI: 211262630.

Date/timePositionNaut miles runAvg speedWind from/ knotsBaromVisibWave heightAir tempDewpointWater temp
2014-Jul-30 06:24N 53°46' E 006°31'1517.8
2014-Jul-30 05:33N 53°43' E 006°06'1817.7
2014-Jul-30 04:33N 53°37' E 005°38'1817.5
2014-Jul-30 03:34N 53°32' E 005°10'1717.2
2014-Jul-30 02:33N 53°24' E 004°44'1717.0
2014-Jul-30 01:34N 53°09' E 004°30'2017.1
2014-Jul-30 00:22N 52°51' E 004°15'1417.2
2014-Jul-29 23:32N 52°40' E 004°01'1717.1
2014-Jul-29 22:33N 52°27' E 003°42'1716.9
2014-Jul-29 21:33N 52°13' E 003°28'1717.2
2014-Jul-29 20:33N 51°56' E 003°22'1616.4
2014-Jul-29 19:33N 51°41' E 003°12'1615.5
2014-Jul-29 18:33N 51°27' E 002°60'1817.6
2014-Jul-29 17:33N 51°25' E 003°28'1212.1
2014-Jul-29 16:34N 51°21' E 003°46'1010.2
2014-Jul-29 15:33N 51°24' E 004°02'9 8.8
2014-Jul-29 14:33N 51°21' E 004°15'1 1.1
2014-Jul-29 13:33N 51°20' E 004°17'0 0.0
2014-Jul-29 12:33N 51°20' E 004°17'0 0.0
2014-Jul-29 11:33N 51°20' E 004°17'0 0.0
2014-Jul-29 10:33N 51°20' E 004°17'0 0.0
2014-Jul-29 09:34N 51°20' E 004°17'0 0.0
2014-Jul-29 08:33N 51°20' E 004°17'0 0.0
2014-Jul-29 07:33N 51°20' E 004°17'0 0.0
2014-Jul-29 06:33N 51°20' E 004°17'0 0.0
2014-Jul-29 05:33N 51°20' E 004°17'0 0.0
2014-Jul-29 04:33N 51°20' E 004°17'0 0.0
2014-Jul-29 03:34N 51°20' E 004°17'0 0.0
2014-Jul-29 02:33N 51°20' E 004°17'0 0.0
2014-Jul-29 01:34N 51°20' E 004°17'0 0.0
2014-Jul-29 00:33N 51°20' E 004°17'0 0.0
2014-Jul-28 23:33N 51°20' E 004°17'0 0.0
2014-Jul-28 22:33N 51°20' E 004°17'0 0.0
2014-Jul-28 21:33N 51°20' E 004°17'0 0.0
2014-Jul-28 20:33N 51°20' E 004°17'0 0.0
2014-Jul-28 19:33N 51°20' E 004°17'0 0.0
2014-Jul-28 18:33N 51°20' E 004°17'0 0.0
2014-Jul-28 17:33N 51°20' E 004°17'0 0.0
2014-Jul-28 16:33N 51°20' E 004°17'0 0.0
2014-Jul-28 15:33N 51°20' E 004°17'0 0.0
2014-Jul-28 14:33N 51°20' E 004°17'0 0.0
2014-Jul-28 13:34N 51°20' E 004°17'0 0.1
2014-Jul-28 12:34N 51°20' E 004°17'4 4.3
2014-Jul-28 11:33N 51°24' E 004°13'9 9.0
2014-Jul-28 10:33N 51°26' E 003°59'9 9.4
2014-Jul-28 09:33N 51°22' E 003°45'8 8.3
2014-Jul-28 08:33N 51°26' E 003°33'1515.4
2014-Jul-28 07:34N 51°24' E 003°09'1615.9
2014-Jul-28 06:34N 51°22' E 002°44'1413.9
2014-Jul-28 05:33N 51°20' E 002°21'1918.7
2014-Jul-28 04:34N 51°10' E 001°56'1919.2
2014-Jul-28 03:34N 50°58' E 001°32'1919.4
2014-Jul-28 02:34N 50°41' E 001°19'2819.0
2014-Jul-28 01:04N 50°26' E 000°41'1019.3
2014-Jul-28 00:34N 50°24' E 000°26'2118.7
2014-Jul-27 23:27N 50°19' W 000°06'3216.6
2014-Jul-27 21:29N 50°33' W 000°52'1213.0
2014-Jul-27 20:33N 50°43' W 001°01'1212.5
2014-Jul-27 19:34N 50°50' W 001°18'7 7.0
2014-Jul-27 18:34N 50°54' W 001°26'1 0.9
2014-Jul-27 17:32N 50°55' W 001°28'0 0.0
2014-Jul-27 16:29N 50°55' W 001°28'0 0.0
2014-Jul-27 15:29N 50°55' W 001°28'0 0.0
2014-Jul-27 14:31N 50°55' W 001°28'0 0.0
2014-Jul-27 13:31N 50°55' W 001°28'0 0.0
2014-Jul-27 12:30N 50°55' W 001°28'0 0.0
2014-Jul-27 11:30N 50°55' W 001°28'0 0.0
2014-Jul-27 10:32N 50°55' W 001°28'0 0.0
2014-Jul-27 09:32N 50°55' W 001°28'0 0.0
2014-Jul-27 08:28N 50°55' W 001°28'0 0.0
2014-Jul-27 07:31N 50°55' W 001°28'0 0.0
2014-Jul-27 06:33N 50°55' W 001°28'0 0.0
2014-Jul-27 05:33N 50°55' W 001°28'0 0.0
2014-Jul-27 04:33N 50°55' W 001°28'0 0.0
2014-Jul-27 03:33N 50°55' W 001°28'0 0.0
2014-Jul-27 02:32N 50°55' W 001°28'0 0.0
2014-Jul-27 01:32N 50°55' W 001°28'0 0.0
2014-Jul-27 00:31N 50°55' W 001°28'0 0.0
2014-Jul-26 23:31N 50°55' W 001°28'0 0.0
2014-Jul-26 22:33N 50°55' W 001°28'0 0.0
2014-Jul-26 21:33N 50°55' W 001°28'0 0.0
2014-Jul-26 20:32N 50°55' W 001°28'0 0.0
2014-Jul-26 19:32N 50°55' W 001°28'0 0.0
2014-Jul-26 18:32N 50°55' W 001°28'0 0.0
2014-Jul-26 17:31N 50°55' W 001°28'0 0.0
2014-Jul-26 16:33N 50°55' W 001°28'0 0.0
2014-Jul-26 15:33N 50°55' W 001°28'3 3.3
2014-Jul-26 14:33N 50°53' W 001°24'8 8.4
2014-Jul-26 13:33N 50°46' W 001°15'1413.7
2014-Jul-26 12:33N 50°39' W 000°57'4 3.4
2014-Jul-26 11:25N 50°36' W 001°01'0 0.3
2014-Jul-26 10:31N 50°36' W 001°01'0 0.1
2014-Jul-26 09:33N 50°36' W 001°01'0 0.0
2014-Jul-26 08:33N 50°36' W 001°01'0 0.0
2014-Jul-26 07:33N 50°36' W 001°01'0 0.0
2014-Jul-26 06:32N 50°36' W 001°01'0 0.0
2014-Jul-26 05:32N 50°36' W 001°01'0 0.3
2014-Jul-26 04:31N 50°36' W 001°01'0 0.1
2014-Jul-26 03:31N 50°36' W 001°01'0 0.0
2014-Jul-26 02:33N 50°36' W 001°01'0 0.0
2014-Jul-26 01:24N 50°36' W 001°01'0 0.0
2014-Jul-26 00:33N 50°36' W 001°01'0 0.0
2014-Jul-25 23:32N 50°36' W 001°01'0 0.1
2014-Jul-25 22:32N 50°36' W 001°01'0 0.3
2014-Jul-25 21:31N 50°36' W 001°01'0 0.0
2014-Jul-25 20:31N 50°36' W 001°01'0 0.0
2014-Jul-25 19:33N 50°36' W 001°01'0 0.0
2014-Jul-25 18:33N 50°36' W 001°01'0 0.0
2014-Jul-25 17:33N 50°36' W 001°01'0 0.3
2014-Jul-25 16:32N 50°36' W 001°01'0 0.1
2014-Jul-25 15:32N 50°36' W 001°01'0 0.0
2014-Jul-25 14:31N 50°36' W 001°01'0 0.0
2014-Jul-25 13:31N 50°36' W 001°01'0 0.0
2014-Jul-25 12:33N 50°36' W 001°01'0 0.0
2014-Jul-25 11:30N 50°36' W 001°01'0 0.0
2014-Jul-25 10:33N 50°36' W 001°01'0 0.2
2014-Jul-25 09:26N 50°36' W 001°01'0 0.1
2014-Jul-25 08:32N 50°36' W 001°01'0 0.0
2014-Jul-25 07:31N 50°36' W 001°01'0 0.0
2014-Jul-25 06:31N 50°36' W 001°01'0 0.0
2014-Jul-25 05:33N 50°36' W 001°01'0 0.2
2014-Jul-25 04:33N 50°36' W 001°01'0 0.2
2014-Jul-25 03:29N 50°36' W 001°01'0 0.0
2014-Jul-25 02:32N 50°36' W 001°01'0 0.0
2014-Jul-25 01:32N 50°36' W 001°01'0 0.0
2014-Jul-25 00:26N 50°36' W 001°01'0 0.0
2014-Jul-24 23:31N 50°36' W 001°01'0 0.0
2014-Jul-24 22:33N 50°36' W 001°01'0 0.3
2014-Jul-24 21:33N 50°36' W 001°01'0 0.1
2014-Jul-24 20:32N 50°36' W 001°01'0 0.0
2014-Jul-24 19:32N 50°36' W 001°01'0 0.0
2014-Jul-24 18:32N 50°36' W 001°01'0 0.0
2014-Jul-24 17:31N 50°36' W 001°01'0 0.0
2014-Jul-24 16:31N 50°36' W 001°01'0 0.3
2014-Jul-24 15:33N 50°36' W 001°01'0 0.1
2014-Jul-24 14:34N 50°36' W 001°01'0 0.0
2014-Jul-24 13:34N 50°36' W 001°01'0 0.0
2014-Jul-24 12:34N 50°36' W 001°01'0 0.0
2014-Jul-24 11:34N 50°36' W 001°01'0 0.0
2014-Jul-24 10:33N 50°36' W 001°01'0 0.1
2014-Jul-24 09:34N 50°36' W 001°01'0 0.3
2014-Jul-24 08:33N 50°36' W 001°01'0 0.0
2014-Jul-24 07:34N 50°36' W 001°01'0 0.0
2014-Jul-24 06:34N 50°36' W 001°01'0 0.2
2014-Jul-24 05:34N 50°36' W 001°01'7 7.4
2014-Jul-24 04:34N 50°29' W 001°02'5116.8
2014-Jul-24 01:31N 49°58' W 002°06'15717.6
2014-Jul-23 16:33N 49°37' W 006°07'1918.7
2014-Jul-23 15:33N 49°38' W 006°36'17918.7
2014-Jul-23 06:00N 49°30' W 011°12'10918.2 150 / 91019.0 5.4 0.517.514.618.0
2014-Jul-23 00:00N 49°24' W 014°00'11419.0 170 / 121019.0 5.4 17.015.418.0
2014-Jul-22 18:00N 49°12' W 016°54'5518.4 250 / 41018.010.8 0.518.513.618.0
2014-Jul-22 15:00N 49°06' W 018°18'5618.8 210 / 121018.210.8 18.214.718.0
2014-Jul-22 12:00N 48°54' W 019°42'11619.4 230 / 151017.310.8 1.019.512.817.0
2014-Jul-22 06:00N 48°36' W 022°36'11419.0 240 / 201014.510.8 3.016.010.817.0
2014-Jul-22 00:00N 48°12' W 025°24'22412.4 220 / 201014.010.8 2.514.811.417.0
2014-Jul-21 06:00N 46°30' W 030°18'23138.5 270 / 201014.010.8 3.514.0 9.816.0
2014-Jul-21 00:00N 45°54' W 035°48'21217.7 270 / 221016.310.8 3.015.011.618.0
2014-Jul-20 12:00N 44°30' W 040°24'   300 / 211019.310.8 2.016.511.419.0

Dump ship's entire track history